sensor_id;sensor_type;location;lat;lon;timestamp;P1;durP1;ratioP1;P2;durP2;ratioP2
5297;SDS011;14738;42.668;23.250;2023-04-25T00:01:20;5.20;;;4.77;;
5297;SDS011;14738;42.668;23.250;2023-04-25T00:03:47;6.47;;;5.80;;
5297;SDS011;14738;42.668;23.250;2023-04-25T00:06:12;5.90;;;5.30;;
5297;SDS011;14738;42.668;23.250;2023-04-25T00:08:38;9.10;;;6.50;;
5297;SDS011;14738;42.668;23.250;2023-04-25T00:11:04;6.53;;;5.93;;
5297;SDS011;14738;42.668;23.250;2023-04-25T00:13:29;6.90;;;6.30;;
5297;SDS011;14738;42.668;23.250;2023-04-25T00:15:55;6.40;;;5.80;;
5297;SDS011;14738;42.668;23.250;2023-04-25T00:18:23;6.87;;;6.30;;
5297;SDS011;14738;42.668;23.250;2023-04-25T00:20:48;5.80;;;5.30;;
5297;SDS011;14738;42.668;23.250;2023-04-25T00:23:14;6.13;;;5.63;;
5297;SDS011;14738;42.668;23.250;2023-04-25T00:25:46;5.13;;;4.70;;
5297;SDS011;14738;42.668;23.250;2023-04-25T00:28:13;4.20;;;3.90;;
5297;SDS011;14738;42.668;23.250;2023-04-25T00:30:39;3.80;;;3.60;;
5297;SDS011;14738;42.668;23.250;2023-04-25T00:33:05;3.63;;;3.40;;
5297;SDS011;14738;42.668;23.250;2023-04-25T00:35:31;3.57;;;3.37;;
5297;SDS011;14738;42.668;23.250;2023-04-25T00:37:57;3.87;;;3.67;;
5297;SDS011;14738;42.668;23.250;2023-04-25T00:40:22;3.77;;;3.50;;
5297;SDS011;14738;42.668;23.250;2023-04-25T00:42:47;3.60;;;3.33;;
5297;SDS011;14738;42.668;23.250;2023-04-25T00:45:14;3.40;;;3.20;;
5297;SDS011;14738;42.668;23.250;2023-04-25T00:47:40;3.20;;;3.00;;
5297;SDS011;14738;42.668;23.250;2023-04-25T00:50:06;2.73;;;2.60;;
5297;SDS011;14738;42.668;23.250;2023-04-25T00:52:33;2.00;;;1.90;;
5297;SDS011;14738;42.668;23.250;2023-04-25T00:54:59;1.97;;;1.87;;
5297;SDS011;14738;42.668;23.250;2023-04-25T00:57:24;1.90;;;1.80;;
5297;SDS011;14738;42.668;23.250;2023-04-25T00:59:51;4.33;;;2.37;;
5297;SDS011;14738;42.668;23.250;2023-04-25T01:02:17;2.03;;;1.83;;
5297;SDS011;14738;42.668;23.250;2023-04-25T01:04:44;2.03;;;1.93;;
5297;SDS011;14738;42.668;23.250;2023-04-25T01:07:09;2.60;;;2.40;;
5297;SDS011;14738;42.668;23.250;2023-04-25T01:09:35;2.40;;;2.30;;
5297;SDS011;14738;42.668;23.250;2023-04-25T01:12:01;2.20;;;2.10;;
5297;SDS011;14738;42.668;23.250;2023-04-25T01:14:27;2.27;;;2.20;;
5297;SDS011;14738;42.668;23.250;2023-04-25T01:16:54;1.93;;;1.93;;
5297;SDS011;14738;42.668;23.250;2023-04-25T01:19:20;3.07;;;2.87;;
5297;SDS011;14738;42.668;23.250;2023-04-25T01:21:46;2.50;;;2.40;;
5297;SDS011;14738;42.668;23.250;2023-04-25T01:24:12;2.70;;;2.60;;
5297;SDS011;14738;42.668;23.250;2023-04-25T01:26:38;3.00;;;2.90;;
5297;SDS011;14738;42.668;23.250;2023-04-25T01:29:09;6.07;;;5.63;;
5297;SDS011;14738;42.668;23.250;2023-04-25T01:31:35;6.40;;;5.80;;
5297;SDS011;14738;42.668;23.250;2023-04-25T01:34:01;6.60;;;6.00;;
5297;SDS011;14738;42.668;23.250;2023-04-25T01:36:27;6.10;;;5.50;;
5297;SDS011;14738;42.668;23.250;2023-04-25T01:38:53;4.60;;;4.30;;
5297;SDS011;14738;42.668;23.250;2023-04-25T01:41:18;3.47;;;3.27;;
5297;SDS011;14738;42.668;23.250;2023-04-25T01:43:44;4.10;;;3.80;;
5297;SDS011;14738;42.668;23.250;2023-04-25T01:46:10;6.60;;;5.90;;
5297;SDS011;14738;42.668;23.250;2023-04-25T01:48:36;5.20;;;4.00;;
5297;SDS011;14738;42.668;23.250;2023-04-25T01:51:02;4.03;;;3.63;;
5297;SDS011;14738;42.668;23.250;2023-04-25T01:53:28;3.60;;;3.40;;
5297;SDS011;14738;42.668;23.250;2023-04-25T01:55:54;3.10;;;2.90;;
5297;SDS011;14738;42.668;23.250;2023-04-25T01:58:19;3.53;;;2.77;;
5297;SDS011;14738;42.668;23.250;2023-04-25T02:00:45;3.40;;;3.20;;
5297;SDS011;14738;42.668;23.250;2023-04-25T02:03:11;3.00;;;2.90;;
5297;SDS011;14738;42.668;23.250;2023-04-25T02:05:37;3.40;;;3.20;;
5297;SDS011;14738;42.668;23.250;2023-04-25T02:08:04;3.50;;;3.30;;
5297;SDS011;14738;42.668;23.250;2023-04-25T02:10:30;3.47;;;3.07;;
5297;SDS011;14738;42.668;23.250;2023-04-25T02:12:56;5.70;;;4.33;;
5297;SDS011;14738;42.668;23.250;2023-04-25T02:15:22;4.20;;;3.80;;
5297;SDS011;14738;42.668;23.250;2023-04-25T02:17:47;3.60;;;3.40;;
5297;SDS011;14738;42.668;23.250;2023-04-25T02:20:13;4.00;;;3.33;;
5297;SDS011;14738;42.668;23.250;2023-04-25T02:22:40;3.63;;;3.47;;
5297;SDS011;14738;42.668;23.250;2023-04-25T02:25:07;4.27;;;4.00;;
5297;SDS011;14738;42.668;23.250;2023-04-25T02:27:34;4.83;;;4.43;;
5297;SDS011;14738;42.668;23.250;2023-04-25T02:29:59;5.00;;;4.60;;
5297;SDS011;14738;42.668;23.250;2023-04-25T02:32:25;3.90;;;3.70;;
5297;SDS011;14738;42.668;23.250;2023-04-25T02:34:50;4.30;;;4.00;;
5297;SDS011;14738;42.668;23.250;2023-04-25T02:37:15;5.07;;;4.63;;
5297;SDS011;14738;42.668;23.250;2023-04-25T02:39:41;7.70;;;5.17;;
5297;SDS011;14738;42.668;23.250;2023-04-25T02:42:06;5.33;;;4.93;;
5297;SDS011;14738;42.668;23.250;2023-04-25T02:44:32;4.50;;;4.10;;
5297;SDS011;14738;42.668;23.250;2023-04-25T02:46:57;5.53;;;5.10;;
5297;SDS011;14738;42.668;23.250;2023-04-25T02:49:22;5.90;;;5.30;;
5297;SDS011;14738;42.668;23.250;2023-04-25T02:51:48;8.50;;;7.77;;
5297;SDS011;14738;42.668;23.250;2023-04-25T02:54:13;8.33;;;7.43;;
5297;SDS011;14738;42.668;23.250;2023-04-25T02:56:38;8.30;;;7.40;;
5297;SDS011;14738;42.668;23.250;2023-04-25T02:59:04;9.20;;;7.47;;
5297;SDS011;14738;42.668;23.250;2023-04-25T03:01:30;15.33;;;7.87;;
5297;SDS011;14738;42.668;23.250;2023-04-25T03:03:55;13.23;;;7.87;;
5297;SDS011;14738;42.668;23.250;2023-04-25T03:06:20;11.30;;;10.07;;
5297;SDS011;14738;42.668;23.250;2023-04-25T03:08:46;12.33;;;8.97;;
5297;SDS011;14738;42.668;23.250;2023-04-25T03:11:11;10.40;;;9.40;;
5297;SDS011;14738;42.668;23.250;2023-04-25T03:13:36;11.03;;;9.93;;
5297;SDS011;14738;42.668;23.250;2023-04-25T03:16:02;9.37;;;8.43;;
5297;SDS011;14738;42.668;23.250;2023-04-25T03:18:27;12.60;;;9.60;;
5297;SDS011;14738;42.668;23.250;2023-04-25T03:20:53;10.13;;;8.77;;
5297;SDS011;14738;42.668;23.250;2023-04-25T03:23:18;10.80;;;9.20;;
5297;SDS011;14738;42.668;23.250;2023-04-25T03:25:43;10.90;;;9.80;;
5297;SDS011;14738;42.668;23.250;2023-04-25T03:28:09;13.63;;;12.17;;
5297;SDS011;14738;42.668;23.250;2023-04-25T03:30:34;13.90;;;11.63;;
5297;SDS011;14738;42.668;23.250;2023-04-25T03:33:00;14.23;;;12.73;;
5297;SDS011;14738;42.668;23.250;2023-04-25T03:35:25;13.20;;;11.70;;
5297;SDS011;14738;42.668;23.250;2023-04-25T03:37:50;12.03;;;10.83;;
5297;SDS011;14738;42.668;23.250;2023-04-25T03:40:16;13.70;;;11.53;;
5297;SDS011;14738;42.668;23.250;2023-04-25T03:42:41;13.83;;;12.30;;
5297;SDS011;14738;42.668;23.250;2023-04-25T03:45:07;14.40;;;12.73;;
5297;SDS011;14738;42.668;23.250;2023-04-25T03:47:32;15.40;;;13.30;;
5297;SDS011;14738;42.668;23.250;2023-04-25T03:49:58;14.37;;;12.40;;
5297;SDS011;14738;42.668;23.250;2023-04-25T03:52:25;13.13;;;11.60;;
5297;SDS011;14738;42.668;23.250;2023-04-25T03:54:51;12.20;;;10.90;;
5297;SDS011;14738;42.668;23.250;2023-04-25T03:57:16;11.63;;;9.57;;
5297;SDS011;14738;42.668;23.250;2023-04-25T03:59:41;10.63;;;9.63;;
5297;SDS011;14738;42.668;23.250;2023-04-25T04:02:07;9.50;;;8.60;;
5297;SDS011;14738;42.668;23.250;2023-04-25T04:04:32;9.47;;;8.67;;
5297;SDS011;14738;42.668;23.250;2023-04-25T04:06:58;8.63;;;7.93;;
5297;SDS011;14738;42.668;23.250;2023-04-25T04:09:23;8.83;;;8.03;;
5297;SDS011;14738;42.668;23.250;2023-04-25T04:11:48;9.70;;;8.80;;
5297;SDS011;14738;42.668;23.250;2023-04-25T04:14:14;9.17;;;8.37;;
5297;SDS011;14738;42.668;23.250;2023-04-25T04:16:40;9.90;;;9.00;;
5297;SDS011;14738;42.668;23.250;2023-04-25T04:19:05;10.63;;;9.63;;
5297;SDS011;14738;42.668;23.250;2023-04-25T04:21:30;9.70;;;8.80;;
5297;SDS011;14738;42.668;23.250;2023-04-25T04:23:56;8.67;;;7.87;;
5297;SDS011;14738;42.668;23.250;2023-04-25T04:26:22;8.80;;;7.87;;
5297;SDS011;14738;42.668;23.250;2023-04-25T04:28:48;9.10;;;8.20;;
5297;SDS011;14738;42.668;23.250;2023-04-25T04:31:19;10.30;;;9.30;;
5297;SDS011;14738;42.668;23.250;2023-04-25T04:33:45;10.17;;;9.17;;
5297;SDS011;14738;42.668;23.250;2023-04-25T04:36:11;10.80;;;9.70;;
5297;SDS011;14738;42.668;23.250;2023-04-25T04:38:37;11.83;;;10.77;;
5297;SDS011;14738;42.668;23.250;2023-04-25T04:41:02;11.27;;;10.27;;
5297;SDS011;14738;42.668;23.250;2023-04-25T04:43:28;12.80;;;11.43;;
5297;SDS011;14738;42.668;23.250;2023-04-25T04:45:54;12.27;;;11.10;;
5297;SDS011;14738;42.668;23.250;2023-04-25T04:48:21;11.73;;;10.63;;
5297;SDS011;14738;42.668;23.250;2023-04-25T04:50:47;11.00;;;10.00;;
5297;SDS011;14738;42.668;23.250;2023-04-25T04:53:13;10.90;;;9.90;;
5297;SDS011;14738;42.668;23.250;2023-04-25T04:55:38;11.13;;;10.03;;
5297;SDS011;14738;42.668;23.250;2023-04-25T04:58:06;11.10;;;9.93;;
5297;SDS011;14738;42.668;23.250;2023-04-25T05:00:32;13.63;;;11.30;;
5297;SDS011;14738;42.668;23.250;2023-04-25T05:02:58;13.03;;;11.80;;
5297;SDS011;14738;42.668;23.250;2023-04-25T05:05:24;14.37;;;12.87;;
5297;SDS011;14738;42.668;23.250;2023-04-25T05:07:49;13.70;;;12.40;;
5297;SDS011;14738;42.668;23.250;2023-04-25T05:10:16;19.07;;;13.83;;
5297;SDS011;14738;42.668;23.250;2023-04-25T05:12:42;14.87;;;13.37;;
5297;SDS011;14738;42.668;23.250;2023-04-25T05:15:08;14.57;;;13.07;;
5297;SDS011;14738;42.668;23.250;2023-04-25T05:17:33;14.80;;;13.30;;
5297;SDS011;14738;42.668;23.250;2023-04-25T05:19:59;15.47;;;13.80;;
5297;SDS011;14738;42.668;23.250;2023-04-25T05:22:24;16.17;;;14.60;;
5297;SDS011;14738;42.668;23.250;2023-04-25T05:24:50;16.07;;;14.47;;
5297;SDS011;14738;42.668;23.250;2023-04-25T05:27:16;15.13;;;13.53;;
5297;SDS011;14738;42.668;23.250;2023-04-25T05:29:42;18.77;;;15.20;;
5297;SDS011;14738;42.668;23.250;2023-04-25T05:32:08;15.30;;;13.70;;
5297;SDS011;14738;42.668;23.250;2023-04-25T05:34:34;18.27;;;16.30;;
5297;SDS011;14738;42.668;23.250;2023-04-25T05:37:00;15.20;;;13.60;;
5297;SDS011;14738;42.668;23.250;2023-04-25T05:39:25;13.90;;;12.53;;
5297;SDS011;14738;42.668;23.250;2023-04-25T05:41:51;16.27;;;14.67;;
5297;SDS011;14738;42.668;23.250;2023-04-25T05:44:16;17.13;;;15.40;;
5297;SDS011;14738;42.668;23.250;2023-04-25T05:46:42;16.50;;;14.80;;
5297;SDS011;14738;42.668;23.250;2023-04-25T05:49:07;14.90;;;13.30;;
5297;SDS011;14738;42.668;23.250;2023-04-25T05:51:33;14.53;;;13.13;;
5297;SDS011;14738;42.668;23.250;2023-04-25T05:53:58;12.70;;;11.50;;
5297;SDS011;14738;42.668;23.250;2023-04-25T05:56:24;12.70;;;11.50;;
5297;SDS011;14738;42.668;23.250;2023-04-25T05:58:49;12.27;;;11.07;;
5297;SDS011;14738;42.668;23.250;2023-04-25T06:01:15;13.10;;;11.70;;
5297;SDS011;14738;42.668;23.250;2023-04-25T06:03:41;12.67;;;11.43;;
5297;SDS011;14738;42.668;23.250;2023-04-25T06:06:08;12.57;;;10.90;;
5297;SDS011;14738;42.668;23.250;2023-04-25T06:08:33;12.20;;;11.10;;
5297;SDS011;14738;42.668;23.250;2023-04-25T06:10:59;13.37;;;11.90;;
5297;SDS011;14738;42.668;23.250;2023-04-25T06:13:24;13.83;;;11.90;;
5297;SDS011;14738;42.668;23.250;2023-04-25T06:15:50;13.83;;;12.53;;
5297;SDS011;14738;42.668;23.250;2023-04-25T06:18:15;16.70;;;13.47;;
5297;SDS011;14738;42.668;23.250;2023-04-25T06:20:41;16.30;;;14.00;;
5297;SDS011;14738;42.668;23.250;2023-04-25T06:23:07;15.63;;;14.00;;
5297;SDS011;14738;42.668;23.250;2023-04-25T06:25:32;13.90;;;12.60;;
5297;SDS011;14738;42.668;23.250;2023-04-25T06:27:57;16.83;;;14.40;;
5297;SDS011;14738;42.668;23.250;2023-04-25T06:30:23;14.70;;;13.30;;
5297;SDS011;14738;42.668;23.250;2023-04-25T06:32:50;13.23;;;12.03;;
5297;SDS011;14738;42.668;23.250;2023-04-25T06:35:16;16.00;;;12.50;;
5297;SDS011;14738;42.668;23.250;2023-04-25T06:37:42;14.73;;;13.07;;
5297;SDS011;14738;42.668;23.250;2023-04-25T06:40:07;14.00;;;12.70;;
5297;SDS011;14738;42.668;23.250;2023-04-25T06:42:33;13.80;;;12.47;;
5297;SDS011;14738;42.668;23.250;2023-04-25T06:44:58;15.30;;;13.03;;
5297;SDS011;14738;42.668;23.250;2023-04-25T06:47:24;17.93;;;16.10;;
5297;SDS011;14738;42.668;23.250;2023-04-25T06:49:49;17.03;;;15.20;;
5297;SDS011;14738;42.668;23.250;2023-04-25T06:52:15;30.67;;;19.53;;
5297;SDS011;14738;42.668;23.250;2023-04-25T06:54:42;14.57;;;13.10;;
5297;SDS011;14738;42.668;23.250;2023-04-25T06:57:08;23.30;;;17.50;;
5297;SDS011;14738;42.668;23.250;2023-04-25T06:59:33;14.77;;;13.20;;
5297;SDS011;14738;42.668;23.250;2023-04-25T07:01:59;12.43;;;10.50;;
5297;SDS011;14738;42.668;23.250;2023-04-25T07:04:24;11.80;;;10.67;;
5297;SDS011;14738;42.668;23.250;2023-04-25T07:06:50;12.20;;;11.00;;
5297;SDS011;14738;42.668;23.250;2023-04-25T07:09:15;12.83;;;9.20;;
5297;SDS011;14738;42.668;23.250;2023-04-25T07:11:41;13.17;;;10.13;;
5297;SDS011;14738;42.668;23.250;2023-04-25T07:14:06;11.70;;;10.60;;
5297;SDS011;14738;42.668;23.250;2023-04-25T07:16:32;15.70;;;11.13;;
5297;SDS011;14738;42.668;23.250;2023-04-25T07:18:57;15.30;;;9.70;;
5297;SDS011;14738;42.668;23.250;2023-04-25T07:21:24;11.47;;;10.27;;
5297;SDS011;14738;42.668;23.250;2023-04-25T07:23:50;20.33;;;13.53;;
5297;SDS011;14738;42.668;23.250;2023-04-25T07:26:15;14.40;;;12.60;;
5297;SDS011;14738;42.668;23.250;2023-04-25T07:28:41;11.43;;;9.67;;
5297;SDS011;14738;42.668;23.250;2023-04-25T07:31:07;11.77;;;10.67;;
5297;SDS011;14738;42.668;23.250;2023-04-25T07:33:33;12.37;;;10.00;;
5297;SDS011;14738;42.668;23.250;2023-04-25T07:35:58;11.40;;;10.20;;
5297;SDS011;14738;42.668;23.250;2023-04-25T07:38:24;12.30;;;10.30;;
5297;SDS011;14738;42.668;23.250;2023-04-25T07:40:49;14.40;;;8.80;;
5297;SDS011;14738;42.668;23.250;2023-04-25T07:43:14;7.80;;;7.00;;
5297;SDS011;14738;42.668;23.250;2023-04-25T07:45:44;10.60;;;9.50;;
5297;SDS011;14738;42.668;23.250;2023-04-25T07:48:10;11.67;;;8.97;;
5297;SDS011;14738;42.668;23.250;2023-04-25T07:50:35;16.03;;;9.77;;
5297;SDS011;14738;42.668;23.250;2023-04-25T07:53:01;9.97;;;8.97;;
5297;SDS011;14738;42.668;23.250;2023-04-25T07:55:27;9.20;;;8.07;;
5297;SDS011;14738;42.668;23.250;2023-04-25T07:57:53;6.23;;;5.37;;
5297;SDS011;14738;42.668;23.250;2023-04-25T08:00:18;9.63;;;7.17;;
5297;SDS011;14738;42.668;23.250;2023-04-25T08:02:44;7.90;;;4.27;;
5297;SDS011;14738;42.668;23.250;2023-04-25T08:05:10;3.57;;;3.37;;
5297;SDS011;14738;42.668;23.250;2023-04-25T08:07:40;2.87;;;2.77;;
5297;SDS011;14738;42.668;23.250;2023-04-25T08:10:06;2.70;;;2.60;;
5297;SDS011;14738;42.668;23.250;2023-04-25T08:12:32;3.23;;;2.97;;
5297;SDS011;14738;42.668;23.250;2023-04-25T08:14:58;2.30;;;2.20;;
5297;SDS011;14738;42.668;23.250;2023-04-25T08:17:23;2.63;;;2.53;;
5297;SDS011;14738;42.668;23.250;2023-04-25T08:19:49;2.97;;;2.77;;
5297;SDS011;14738;42.668;23.250;2023-04-25T08:22:14;3.30;;;3.00;;
5297;SDS011;14738;42.668;23.250;2023-04-25T08:24:40;3.20;;;3.00;;
5297;SDS011;14738;42.668;23.250;2023-04-25T08:27:06;3.03;;;2.80;;
5297;SDS011;14738;42.668;23.250;2023-04-25T08:29:32;3.23;;;3.03;;
5297;SDS011;14738;42.668;23.250;2023-04-25T08:31:59;3.33;;;3.00;;
5297;SDS011;14738;42.668;23.250;2023-04-25T08:34:24;2.90;;;2.70;;
5297;SDS011;14738;42.668;23.250;2023-04-25T08:36:50;2.83;;;2.63;;
5297;SDS011;14738;42.668;23.250;2023-04-25T08:39:16;3.40;;;2.93;;
5297;SDS011;14738;42.668;23.250;2023-04-25T08:41:41;2.97;;;2.77;;
5297;SDS011;14738;42.668;23.250;2023-04-25T08:44:09;3.03;;;2.93;;
5297;SDS011;14738;42.668;23.250;2023-04-25T08:46:37;3.17;;;2.97;;
5297;SDS011;14738;42.668;23.250;2023-04-25T08:49:05;3.17;;;2.97;;
5297;SDS011;14738;42.668;23.250;2023-04-25T08:51:32;2.70;;;2.60;;
5297;SDS011;14738;42.668;23.250;2023-04-25T08:54:08;4.00;;;2.80;;
5297;SDS011;14738;42.668;23.250;2023-04-25T08:56:40;2.57;;;2.47;;
5297;SDS011;14738;42.668;23.250;2023-04-25T08:59:09;2.53;;;2.43;;
5297;SDS011;14738;42.668;23.250;2023-04-25T09:01:35;2.20;;;2.10;;
5297;SDS011;14738;42.668;23.250;2023-04-25T09:04:01;2.40;;;2.27;;
5297;SDS011;14738;42.668;23.250;2023-04-25T09:06:27;2.40;;;2.30;;
5297;SDS011;14738;42.668;23.250;2023-04-25T09:09:05;1.80;;;1.70;;
5297;SDS011;14738;42.668;23.250;2023-04-25T09:11:32;2.07;;;1.97;;
5297;SDS011;14738;42.668;23.250;2023-04-25T09:19:23;2.27;;;1.83;;
5297;SDS011;14738;42.668;23.250;2023-04-25T09:21:53;5.10;;;2.40;;
5297;SDS011;14738;42.668;23.250;2023-04-25T09:24:33;1.70;;;1.60;;
5297;SDS011;14738;42.668;23.250;2023-04-25T09:27:03;1.60;;;1.57;;
5297;SDS011;14738;42.668;23.250;2023-04-25T09:29:31;1.70;;;1.60;;
5297;SDS011;14738;42.668;23.250;2023-04-25T09:32:10;1.80;;;1.40;;
5297;SDS011;14738;42.668;23.250;2023-04-25T09:34:50;1.37;;;1.37;;
5297;SDS011;14738;42.668;23.250;2023-04-25T09:37:17;1.77;;;1.40;;
5297;SDS011;14738;42.668;23.250;2023-04-25T09:39:44;1.30;;;1.30;;
5297;SDS011;14738;42.668;23.250;2023-04-25T09:42:12;1.70;;;1.63;;
5297;SDS011;14738;42.668;23.250;2023-04-25T09:44:37;1.53;;;1.53;;
5297;SDS011;14738;42.668;23.250;2023-04-25T09:47:11;2.03;;;1.30;;
5297;SDS011;14738;42.668;23.250;2023-04-25T09:49:38;0.93;;;0.93;;
5297;SDS011;14738;42.668;23.250;2023-04-25T09:52:06;1.87;;;1.20;;
5297;SDS011;14738;42.668;23.250;2023-04-25T09:54:31;1.20;;;1.20;;
5297;SDS011;14738;42.668;23.250;2023-04-25T09:56:56;1.43;;;1.40;;
5297;SDS011;14738;42.668;23.250;2023-04-25T09:59:27;1.30;;;1.20;;
5297;SDS011;14738;42.668;23.250;2023-04-25T10:01:56;2.17;;;1.50;;
5297;SDS011;14738;42.668;23.250;2023-04-25T10:04:24;2.03;;;1.50;;
5297;SDS011;14738;42.668;23.250;2023-04-25T10:06:52;1.30;;;1.30;;
5297;SDS011;14738;42.668;23.250;2023-04-25T10:09:20;1.40;;;1.40;;
5297;SDS011;14738;42.668;23.250;2023-04-25T10:11:51;1.20;;;1.10;;
5297;SDS011;14738;42.668;23.250;2023-04-25T10:14:17;1.17;;;1.10;;
5297;SDS011;14738;42.668;23.250;2023-04-25T10:16:44;1.70;;;1.17;;
5297;SDS011;14738;42.668;23.250;2023-04-25T10:19:10;1.60;;;1.50;;
5297;SDS011;14738;42.668;23.250;2023-04-25T10:21:41;1.20;;;1.20;;
5297;SDS011;14738;42.668;23.250;2023-04-25T10:24:13;1.83;;;1.73;;
5297;SDS011;14738;42.668;23.250;2023-04-25T10:26:39;1.57;;;1.47;;
5297;SDS011;14738;42.668;23.250;2023-04-25T10:29:05;1.67;;;1.57;;
5297;SDS011;14738;42.668;23.250;2023-04-25T10:31:30;7.80;;;1.90;;
5297;SDS011;14738;42.668;23.250;2023-04-25T10:33:56;1.57;;;1.47;;
5297;SDS011;14738;42.668;23.250;2023-04-25T10:36:22;1.10;;;1.10;;
5297;SDS011;14738;42.668;23.250;2023-04-25T10:38:50;1.50;;;1.40;;
5297;SDS011;14738;42.668;23.250;2023-04-25T10:41:19;2.10;;;1.37;;
5297;SDS011;14738;42.668;23.250;2023-04-25T10:43:47;2.13;;;1.33;;
5297;SDS011;14738;42.668;23.250;2023-04-25T10:46:14;1.27;;;1.27;;
5297;SDS011;14738;42.668;23.250;2023-04-25T10:48:48;1.10;;;1.10;;
5297;SDS011;14738;42.668;23.250;2023-04-25T10:51:18;1.57;;;1.47;;
5297;SDS011;14738;42.668;23.250;2023-04-25T10:54:07;1.10;;;1.00;;
5297;SDS011;14738;42.668;23.250;2023-04-25T10:56:38;1.00;;;1.00;;
5297;SDS011;14738;42.668;23.250;2023-04-25T10:59:16;1.27;;;1.27;;
5297;SDS011;14738;42.668;23.250;2023-04-25T11:01:46;1.20;;;1.20;;
5297;SDS011;14738;42.668;23.250;2023-04-25T11:04:20;9.37;;;2.10;;
5297;SDS011;14738;42.668;23.250;2023-04-25T11:09:23;1.07;;;1.07;;
5297;SDS011;14738;42.668;23.250;2023-04-25T11:11:56;1.47;;;1.37;;
5297;SDS011;14738;42.668;23.250;2023-04-25T11:14:23;1.37;;;1.37;;
5297;SDS011;14738;42.668;23.250;2023-04-25T11:16:57;1.10;;;1.00;;
5297;SDS011;14738;42.668;23.250;2023-04-25T11:19:24;1.80;;;1.27;;
5297;SDS011;14738;42.668;23.250;2023-04-25T11:21:50;6.00;;;1.50;;
5297;SDS011;14738;42.668;23.250;2023-04-25T11:24:19;3.43;;;1.17;;
5297;SDS011;14738;42.668;23.250;2023-04-25T11:26:48;1.50;;;1.40;;
5297;SDS011;14738;42.668;23.250;2023-04-25T11:29:13;1.87;;;1.77;;
5297;SDS011;14738;42.668;23.250;2023-04-25T11:31:42;2.93;;;1.10;;
5297;SDS011;14738;42.668;23.250;2023-04-25T11:34:08;1.40;;;1.40;;
5297;SDS011;14738;42.668;23.250;2023-04-25T11:36:34;1.40;;;1.30;;
5297;SDS011;14738;42.668;23.250;2023-04-25T11:39:03;1.40;;;1.40;;
5297;SDS011;14738;42.668;23.250;2023-04-25T11:41:30;1.90;;;1.80;;
5297;SDS011;14738;42.668;23.250;2023-04-25T11:43:57;1.43;;;1.43;;
5297;SDS011;14738;42.668;23.250;2023-04-25T11:46:22;1.50;;;1.40;;
5297;SDS011;14738;42.668;23.250;2023-04-25T11:48:48;5.53;;;2.47;;
5297;SDS011;14738;42.668;23.250;2023-04-25T11:51:15;2.00;;;1.90;;
5297;SDS011;14738;42.668;23.250;2023-04-25T11:53:41;1.30;;;1.30;;
5297;SDS011;14738;42.668;23.250;2023-04-25T11:56:09;1.77;;;1.67;;
5297;SDS011;14738;42.668;23.250;2023-04-25T11:58:55;1.30;;;1.20;;
5297;SDS011;14738;42.668;23.250;2023-04-25T12:01:33;1.30;;;1.30;;
5297;SDS011;14738;42.668;23.250;2023-04-25T12:04:10;1.47;;;1.37;;
5297;SDS011;14738;42.668;23.250;2023-04-25T12:06:37;1.50;;;1.40;;
5297;SDS011;14738;42.668;23.250;2023-04-25T12:09:10;1.33;;;1.30;;
5297;SDS011;14738;42.668;23.250;2023-04-25T12:14:20;1.47;;;1.37;;
5297;SDS011;14738;42.668;23.250;2023-04-25T12:16:47;1.73;;;1.10;;
5297;SDS011;14738;42.668;23.250;2023-04-25T12:19:17;1.30;;;1.30;;
5297;SDS011;14738;42.668;23.250;2023-04-25T12:21:43;1.33;;;0.90;;
5297;SDS011;14738;42.668;23.250;2023-04-25T12:24:13;1.20;;;1.20;;
5297;SDS011;14738;42.668;23.250;2023-04-25T12:29:31;0.97;;;0.97;;
5297;SDS011;14738;42.668;23.250;2023-04-25T12:31:58;1.60;;;1.50;;
5297;SDS011;14738;42.668;23.250;2023-04-25T12:34:24;1.50;;;1.40;;
5297;SDS011;14738;42.668;23.250;2023-04-25T12:36:50;2.00;;;1.40;;
5297;SDS011;14738;42.668;23.250;2023-04-25T12:39:20;2.60;;;1.30;;
5297;SDS011;14738;42.668;23.250;2023-04-25T12:41:47;1.33;;;1.27;;
5297;SDS011;14738;42.668;23.250;2023-04-25T12:44:13;2.50;;;1.10;;
5297;SDS011;14738;42.668;23.250;2023-04-25T12:46:39;1.47;;;1.00;;
5297;SDS011;14738;42.668;23.250;2023-04-25T12:49:07;1.20;;;1.20;;
5297;SDS011;14738;42.668;23.250;2023-04-25T12:51:36;1.83;;;1.73;;
5297;SDS011;14738;42.668;23.250;2023-04-25T12:54:04;1.63;;;1.40;;
5297;SDS011;14738;42.668;23.250;2023-04-25T12:56:34;2.13;;;1.90;;
5297;SDS011;14738;42.668;23.250;2023-04-25T12:59:07;1.77;;;1.67;;
5297;SDS011;14738;42.668;23.250;2023-04-25T13:01:32;8.43;;;2.37;;
5297;SDS011;14738;42.668;23.250;2023-04-25T13:03:58;3.73;;;2.90;;
5297;SDS011;14738;42.668;23.250;2023-04-25T13:06:23;2.93;;;2.43;;
5297;SDS011;14738;42.668;23.250;2023-04-25T13:08:49;5.80;;;2.70;;
5297;SDS011;14738;42.668;23.250;2023-04-25T13:11:14;3.80;;;2.73;;
5297;SDS011;14738;42.668;23.250;2023-04-25T13:13:40;4.97;;;2.17;;
5297;SDS011;14738;42.668;23.250;2023-04-25T13:16:06;3.37;;;3.07;;
5297;SDS011;14738;42.668;23.250;2023-04-25T13:18:32;5.20;;;3.13;;
5297;SDS011;14738;42.668;23.250;2023-04-25T13:20:59;4.30;;;3.50;;
5297;SDS011;14738;42.668;23.250;2023-04-25T13:23:26;3.80;;;3.20;;
5297;SDS011;14738;42.668;23.250;2023-04-25T13:25:52;4.00;;;3.70;;
5297;SDS011;14738;42.668;23.250;2023-04-25T13:28:20;5.27;;;4.87;;
5297;SDS011;14738;42.668;23.250;2023-04-25T13:30:45;5.93;;;5.33;;
5297;SDS011;14738;42.668;23.250;2023-04-25T13:33:12;5.53;;;4.90;;
5297;SDS011;14738;42.668;23.250;2023-04-25T13:35:38;5.47;;;4.97;;
5297;SDS011;14738;42.668;23.250;2023-04-25T13:38:04;6.70;;;6.10;;
5297;SDS011;14738;42.668;23.250;2023-04-25T13:40:30;6.83;;;5.40;;
5297;SDS011;14738;42.668;23.250;2023-04-25T13:42:56;5.03;;;4.37;;
5297;SDS011;14738;42.668;23.250;2023-04-25T13:45:22;6.10;;;4.43;;
5297;SDS011;14738;42.668;23.250;2023-04-25T13:47:48;4.50;;;3.90;;
5297;SDS011;14738;42.668;23.250;2023-04-25T13:50:13;4.60;;;3.93;;
5297;SDS011;14738;42.668;23.250;2023-04-25T13:52:40;2.73;;;2.53;;
5297;SDS011;14738;42.668;23.250;2023-04-25T13:55:06;3.13;;;2.93;;
5297;SDS011;14738;42.668;23.250;2023-04-25T13:57:32;2.90;;;2.60;;
5297;SDS011;14738;42.668;23.250;2023-04-25T13:59:58;2.67;;;2.47;;
5297;SDS011;14738;42.668;23.250;2023-04-25T14:02:24;2.77;;;2.57;;
5297;SDS011;14738;42.668;23.250;2023-04-25T14:04:51;3.40;;;2.90;;
5297;SDS011;14738;42.668;23.250;2023-04-25T14:07:17;3.47;;;2.30;;
5297;SDS011;14738;42.668;23.250;2023-04-25T14:09:44;2.10;;;2.00;;
5297;SDS011;14738;42.668;23.250;2023-04-25T14:12:09;2.10;;;2.00;;
5297;SDS011;14738;42.668;23.250;2023-04-25T14:14:36;6.00;;;1.47;;
5297;SDS011;14738;42.668;23.250;2023-04-25T14:17:01;1.10;;;1.10;;
5297;SDS011;14738;42.668;23.250;2023-04-25T14:19:27;1.40;;;1.40;;
5297;SDS011;14738;42.668;23.250;2023-04-25T14:21:53;1.53;;;1.50;;
5297;SDS011;14738;42.668;23.250;2023-04-25T14:24:19;2.00;;;1.90;;
5297;SDS011;14738;42.668;23.250;2023-04-25T14:26:44;2.03;;;1.80;;
5297;SDS011;14738;42.668;23.250;2023-04-25T14:29:10;2.73;;;2.47;;
5297;SDS011;14738;42.668;23.250;2023-04-25T14:31:36;2.30;;;2.20;;
5297;SDS011;14738;42.668;23.250;2023-04-25T14:34:03;1.83;;;1.73;;
5297;SDS011;14738;42.668;23.250;2023-04-25T14:36:29;1.67;;;1.57;;
5297;SDS011;14738;42.668;23.250;2023-04-25T14:38:55;2.33;;;2.23;;
5297;SDS011;14738;42.668;23.250;2023-04-25T14:41:21;2.10;;;2.00;;
5297;SDS011;14738;42.668;23.250;2023-04-25T14:43:48;2.10;;;2.00;;
5297;SDS011;14738;42.668;23.250;2023-04-25T14:46:13;1.80;;;1.70;;
5297;SDS011;14738;42.668;23.250;2023-04-25T14:48:39;2.20;;;1.83;;
5297;SDS011;14738;42.668;23.250;2023-04-25T14:51:05;2.00;;;1.90;;